createdAt,value
2019-05-23T00:01:02.795Z,70.5
2019-05-23T00:06:02.276Z,71.7
2019-05-23T00:11:02.873Z,71.2
2019-05-23T00:16:02.464Z,70.4
2019-05-23T00:21:02.455Z,70.7
2019-05-23T00:26:02.388Z,70.5
2019-05-23T00:31:02.429Z,68.9
2019-05-23T00:36:08.681Z,70
2019-05-23T00:41:08.757Z,69.9
2019-05-23T00:46:08.620Z,71
2019-05-23T00:51:08.339Z,70.3
2019-05-23T00:56:08.795Z,70
2019-05-23T01:01:09.818Z,70.9
2019-05-23T01:06:08.203Z,70.2
2019-05-23T01:11:08.479Z,71.2
2019-05-23T01:16:08.516Z,71.6
2019-05-23T01:21:08.289Z,70.6
2019-05-23T01:26:08.497Z,70.2
2019-05-23T01:31:18.889Z,72.7
2019-05-23T01:36:13.640Z,71.2
2019-05-23T01:41:12.932Z,72.2
2019-05-23T01:51:12.925Z,69.6
2019-05-23T01:56:13.105Z,70.9
2019-05-23T02:01:13.007Z,70.1
2019-05-23T02:06:12.898Z,68.5
2019-05-23T02:11:13.412Z,69.2
2019-05-23T02:16:13.141Z,68.8
2019-05-23T02:21:13.230Z,68.3
2019-05-23T02:26:16.124Z,67.6
2019-05-23T02:31:15.842Z,68.4
2019-05-23T02:36:15.787Z,69.2
2019-05-23T02:41:16.515Z,67.7
2019-05-23T02:46:17.658Z,68.8
2019-05-23T02:51:26.947Z,69
2019-05-23T02:56:18.012Z,67.3
2019-05-23T03:06:15.997Z,67.2
2019-05-23T03:11:36.180Z,67.9
2019-05-23T03:16:24.774Z,67.7
2019-05-23T03:21:17.342Z,66.5
2019-05-23T03:31:47.075Z,66.9
2019-05-23T03:36:15.811Z,67.6
2019-05-23T03:41:15.787Z,67.2
2019-05-23T03:46:15.748Z,66.4
2019-05-23T03:51:16.014Z,65.6
2019-05-23T03:56:15.950Z,65.7
2019-05-23T04:01:15.853Z,66.5
2019-05-23T04:06:15.753Z,64.6
2019-05-23T04:11:15.982Z,64.2
2019-05-23T04:16:15.791Z,64.4
2019-05-23T04:21:15.692Z,64.2
2019-05-23T04:26:15.772Z,62.8
2019-05-23T04:31:16.043Z,62.5
2019-05-23T04:36:15.908Z,61.8
2019-05-23T04:41:15.735Z,62.4
2019-05-23T04:46:15.709Z,61.1
2019-05-23T04:51:17.076Z,59.8
2019-05-23T04:56:15.686Z,59.7
2019-05-23T05:01:16.245Z,59.3
2019-05-23T05:06:15.739Z,59.4
2019-05-23T05:11:15.658Z,58.9
2019-05-23T05:16:15.648Z,57.1
2019-05-23T05:21:15.645Z,57.6
2019-05-23T05:26:24.011Z,57.9
2019-05-23T05:31:15.814Z,56.3
2019-05-23T05:36:16.075Z,56.8
2019-05-23T05:41:15.689Z,59
2019-05-23T05:46:16.900Z,58.7
2019-05-23T05:51:16.050Z,55.7
2019-05-23T05:56:16.057Z,55.3
2019-05-23T06:01:31.084Z,55.1
2019-05-23T06:06:15.568Z,56.2
2019-05-23T06:11:15.870Z,55.9
2019-05-23T06:16:15.594Z,55.4
2019-05-23T06:21:15.894Z,53.3
2019-05-23T06:26:15.690Z,52.6
2019-05-23T06:31:16.538Z,52.6
2019-05-23T06:36:15.907Z,51.2
2019-05-23T06:41:15.891Z,51.2
2019-05-23T06:46:16.204Z,52.5
2019-05-23T06:51:15.898Z,50.8
2019-05-23T06:56:16.452Z,51.6
2019-05-23T07:01:16.374Z,51.2
2019-05-23T07:06:22.324Z,50.1
2019-05-23T07:11:16.920Z,49.5
2019-05-23T07:16:15.601Z,46.9
2019-05-23T07:21:15.993Z,47.3
2019-05-23T07:26:16.604Z,51.7
2019-05-23T07:31:15.574Z,49
2019-05-23T07:36:15.974Z,50.2
2019-05-23T07:41:15.869Z,48.3
2019-05-23T07:46:15.518Z,45.3
2019-05-23T07:51:15.770Z,46.4
2019-05-23T07:56:15.797Z,46.3
2019-05-23T08:01:15.810Z,45.6
2019-05-23T08:06:16.303Z,47.4
2019-05-23T08:11:15.790Z,44.2
2019-05-23T08:16:15.693Z,45
2019-05-23T08:21:15.513Z,45.6
2019-05-23T08:26:15.812Z,45.8
2019-05-23T08:31:15.882Z,46.4
2019-05-23T08:36:15.570Z,48.8
2019-05-23T08:41:15.796Z,47.2
2019-05-23T08:46:15.872Z,48.3
2019-05-23T08:51:15.630Z,46.1
2019-05-23T08:56:29.674Z,46.6
2019-05-23T09:01:15.735Z,47.2
2019-05-23T09:06:15.704Z,48.1
2019-05-23T09:11:15.714Z,47.2
2019-05-23T09:16:15.708Z,48.9
2019-05-23T09:21:15.602Z,47.7
2019-05-23T09:26:15.524Z,44.1
2019-05-23T09:31:15.984Z,44.3
2019-05-23T09:36:15.714Z,44.9
2019-05-23T09:41:15.578Z,44.6
2019-05-23T09:46:15.588Z,45.4
2019-05-23T09:51:15.552Z,46.3
2019-05-23T09:56:15.549Z,46
2019-05-23T10:01:16.354Z,46.6
2019-05-23T10:06:15.541Z,44.3
2019-05-23T10:11:15.600Z,42.7
2019-05-23T10:16:16.163Z,41.9
2019-05-23T10:21:15.467Z,42.2
2019-05-23T10:26:15.634Z,42.3
2019-05-23T10:31:15.450Z,37.7
2019-05-23T10:36:17.823Z,36.4
2019-05-23T10:41:15.483Z,38.1
2019-05-23T10:46:15.449Z,37.2
2019-05-23T10:51:15.528Z,42.6
2019-05-23T10:56:20.239Z,40.6
2019-05-23T11:01:15.768Z,41.2
2019-05-23T11:06:32.216Z,41.9
2019-05-23T11:11:17.105Z,42.6
2019-05-23T11:16:15.523Z,42.4
2019-05-23T11:21:15.592Z,41.2
2019-05-23T11:26:18.125Z,39.7
2019-05-23T11:31:15.689Z,40.4
2019-05-23T11:36:31.735Z,39.6
2019-05-23T11:41:16.593Z,37.7
2019-05-23T11:46:15.441Z,39.6
2019-05-23T11:51:15.580Z,41.3
2019-05-23T11:56:15.451Z,41
2019-05-23T12:01:22.847Z,41.4
2019-05-23T12:06:20.094Z,43.4
2019-05-23T12:11:15.490Z,44.2
2019-05-23T12:16:15.547Z,43.7
2019-05-23T12:21:16.548Z,39.9
2019-05-23T12:26:15.555Z,35.7
2019-05-23T12:31:19.608Z,34.4
2019-05-23T12:36:15.399Z,37.3
2019-05-23T12:41:15.338Z,34.4
2019-05-23T12:46:15.488Z,34.2
2019-05-23T12:51:15.419Z,35.2
2019-05-23T12:56:15.483Z,35.4
2019-05-23T13:01:15.740Z,35.4
2019-05-23T13:06:15.440Z,36
2019-05-23T13:11:15.431Z,34.8
2019-05-23T13:16:15.525Z,36.9
2019-05-23T13:21:16.410Z,35.2
2019-05-23T13:26:15.336Z,35.2
2019-05-23T13:31:15.349Z,34.1
2019-05-23T13:36:15.309Z,35.8
2019-05-23T13:41:15.330Z,33.2
2019-05-23T13:46:15.583Z,34.4
2019-05-23T13:51:15.567Z,39.9
2019-05-23T13:56:15.294Z,37.6
2019-05-23T14:01:20.166Z,37.2
2019-05-23T14:06:15.211Z,40.5
2019-05-23T14:11:15.394Z,38.7
2019-05-23T14:16:15.396Z,41.5
2019-05-23T14:21:15.251Z,41
2019-05-23T14:26:15.595Z,42.4
2019-05-23T14:31:15.464Z,50.8
2019-05-23T14:36:15.496Z,45.7
2019-05-23T14:41:15.452Z,44
2019-05-23T14:46:15.433Z,46.4
2019-05-23T14:51:15.280Z,50.1
2019-05-23T14:56:15.268Z,55
2019-05-23T15:01:15.280Z,50.2
2019-05-23T15:06:15.261Z,47.9
2019-05-23T15:11:15.363Z,49.1
2019-05-23T15:16:15.639Z,48.8
2019-05-23T15:21:15.510Z,49.9
2019-05-23T15:26:34.669Z,50.3
2019-05-23T15:31:15.623Z,47.9
2019-05-23T15:36:16.554Z,46.9
2019-05-23T15:41:15.373Z,48.1
2019-05-23T15:46:15.183Z,46.7
2019-05-23T15:51:15.232Z,48.1
2019-05-23T15:56:40.900Z,50.9
2019-05-23T16:01:15.314Z,49
2019-05-23T16:06:15.809Z,44.5
2019-05-23T16:11:19.336Z,43
2019-05-23T16:16:15.445Z,43
2019-05-23T16:21:15.295Z,41.6
2019-05-23T16:26:23.854Z,40.1
2019-05-23T16:31:15.159Z,40.5
2019-05-23T16:36:15.594Z,41.4
2019-05-23T16:41:15.179Z,47
2019-05-23T16:46:15.290Z,47.1
2019-05-23T16:51:15.323Z,47.8
2019-05-23T17:02:05.491Z,49.2
2019-05-23T17:06:27.433Z,52.6
2019-05-23T17:11:31.632Z,53.9
2019-05-23T17:16:27.617Z,54.1
2019-05-23T17:21:27.502Z,55.2
2019-05-23T17:26:27.388Z,55.2
2019-05-23T17:31:27.853Z,54.3
2019-05-23T17:36:27.527Z,57
2019-05-23T17:41:27.389Z,55.1
2019-05-23T17:46:27.335Z,56.2
2019-05-23T17:51:27.575Z,56.5
2019-05-23T17:56:27.325Z,55.6
2019-05-23T18:01:27.434Z,56.8
2019-05-23T18:06:27.656Z,57
2019-05-23T18:11:27.295Z,57
2019-05-23T18:16:27.376Z,56.1
2019-05-23T18:21:27.374Z,57.8
2019-05-23T18:26:27.287Z,57.2
2019-05-23T18:31:29.800Z,58.1
2019-05-23T18:36:27.614Z,56.8
2019-05-23T18:41:27.320Z,59.1
2019-05-23T18:46:27.299Z,57.8
2019-05-23T18:51:27.265Z,57.6
2019-05-23T18:56:27.325Z,58.1
2019-05-23T19:01:27.368Z,58.5
2019-05-23T19:06:27.234Z,56.8
2019-05-23T19:11:37.195Z,56.9
2019-05-23T19:16:27.414Z,57.5
2019-05-23T19:21:27.311Z,57.8
2019-05-23T19:26:27.508Z,56.5
2019-05-23T19:31:28.722Z,56.7
2019-05-23T19:43:11.913Z,59.1
2019-05-23T19:54:45.167Z,57.9
2019-05-23T19:59:44.900Z,57
2019-05-23T20:04:47.788Z,58.9
2019-05-23T20:09:44.938Z,57.7
2019-05-23T20:14:45.016Z,60.1
2019-05-23T20:19:45.013Z,57.9
2019-05-23T20:24:44.991Z,59.5
2019-05-23T20:29:45.221Z,60
2019-05-23T20:34:44.912Z,59.3
2019-05-23T20:39:45.005Z,60.7
2019-05-23T20:44:44.953Z,60.4
2019-05-23T20:57:28.860Z,61.3
2019-05-23T21:02:28.937Z,62.6
2019-05-23T21:07:28.879Z,61.6
2019-05-23T21:12:45.417Z,61.6
2019-05-23T21:17:28.853Z,61.9
2019-05-23T21:27:33.597Z,62.2
2019-05-23T21:32:33.626Z,61.7
2019-05-23T21:37:35.424Z,60.5
2019-05-23T21:42:49.442Z,62.4
2019-05-23T21:47:33.716Z,64
2019-05-23T21:52:33.582Z,62.4
2019-05-23T21:57:33.581Z,63.6
2019-05-23T22:02:33.655Z,62.9
2019-05-23T22:07:33.545Z,62.6
2019-05-23T22:12:33.808Z,62.3
2019-05-23T22:17:33.658Z,60.9
2019-05-23T22:22:33.604Z,62.2
2019-05-23T22:27:33.911Z,62.4
2019-05-23T22:32:33.854Z,62.3
2019-05-23T22:37:33.710Z,61.4
2019-05-23T22:42:33.897Z,59.9
2019-05-23T22:47:33.689Z,61
2019-05-23T22:52:33.482Z,60.7
2019-05-23T22:57:33.663Z,60.2
2019-05-23T23:02:33.528Z,59.9
2019-05-23T23:07:33.595Z,61.3
2019-05-23T23:12:33.526Z,60.6
2019-05-23T23:17:33.681Z,59.5
2019-05-23T23:27:33.518Z,60.8
2019-05-23T23:32:33.892Z,60.4
2019-05-23T23:37:33.491Z,60.7
2019-05-23T23:42:33.495Z,63.6
2019-05-23T23:47:33.519Z,62.3
2019-05-23T23:52:33.527Z,60.8
2019-05-23T23:57:33.442Z,62.3
